Terminal Aerodrome Forecast
Issued by NWS

Home | Current Version | Previous Version | Text Only | Print | Product List | Glossary On
Versions: 1 2 3 4 5 6 7 8 9 10 11 12
512
FTUS45 KPSR 300520
TAFBLH
TAF
KBLH 300520Z 3006/0106 26005KT P6SM FEW120
     FM300900 35005KT P6SM FEW120
     FM301800 17007KT P6SM FEW100
     FM010400 26006KT P6SM SKC=

USA.gov is the U.S. government's official web portal to all federal, state and local government web resources and services.